Time;durP1;ratioP1;P1;durP2;ratioP2;P2;SDS_P1;SDS_P2;PMS_P1;PMS_P2;Temp;Humidity;BMP_temperature;BMP_pressure;BME280_temperature;BME280_humidity;BME280_pressure;Samples;Min_cycle;Max_cycle;Signal;HPM_P1;HPM_P2
2020/12/19 00:00:34;;;;;;;;;;;;;;;;;;5065811;28;19934;-62
2020/12/19 00:03:01;;;;;;;;;;;;;;;;;;5066597;28;19934;-61
2020/12/19 00:05:28;;;;;;;;;;;;;;;;;;5068597;28;19928;-61
2020/12/19 00:07:55;;;;;;;;;;;;;;;;;;5068846;28;20039;-61
2020/12/19 00:10:23;;;;;;;;;;;;;;;;;;5067919;28;19974;-61
2020/12/19 00:12:50;;;;;;;;;;;;;;;;;;5068118;28;20005;-61
2020/12/19 00:15:17;;;;;;;;;;;;;;;;;;5067857;28;19928;-61
2020/12/19 00:17:44;;;;;;;;;;;;;;;;;;5067404;28;19935;-61
2020/12/19 00:20:11;;;;;;;;;;;;;;;;;;5067111;28;19932;-61
2020/12/19 00:22:38;;;;;;;;;;;;;;;;;;5068446;28;19935;-61
2020/12/19 00:25:05;;;;;;;;;;;;;;;;;;5066519;28;20291;-61
2020/12/19 00:27:32;;;;;;;;;;;;;;;;;;5067306;28;20295;-61
2020/12/19 00:29:59;;;;;;;;;;;;;;;;;;5067431;28;19959;-62
2020/12/19 00:32:26;;;;;;;;;;;;;;;;;;5063802;28;20014;-61
2020/12/19 00:34:54;;;;;;;;;;;;;;;;;;5060380;28;20406;-61
2020/12/19 00:37:22;;;;;;;;;;;;;;;;;;5067152;28;19928;-61
2020/12/19 00:39:49;;;;;;;;;;;;;;;;;;5066152;28;19932;-61
2020/12/19 00:42:16;;;;;;;;;;;;;;;;;;5056659;28;19929;-61
2020/12/19 00:44:43;;;;;;;;;;;;;;;;;;5067773;28;19925;-61
2020/12/19 00:47:10;;;;;;;;;;;;;;;;;;5066628;28;20047;-61
2020/12/19 00:49:37;;;;;;;;;;;;;;;;;;5066606;28;20034;-61
2020/12/19 00:52:04;;;;;;;;;;;;;;;;;;5065444;28;19928;-61
2020/12/19 00:54:31;;;;;;;;;;;;;;;;;;5066631;28;20399;-61
2020/12/19 00:56:58;;;;;;;;;;;;;;;;;;5064802;28;19935;-61
2020/12/19 00:59:30;;;;;;;;;;;;;;;;;;5066147;28;19928;-61
2020/12/19 01:01:57;;;;;;;;;;;;;;;;;;5066374;28;19928;-61
2020/12/19 01:04:24;;;;;;;;;;;;;;;;;;5066350;28;19928;-61
2020/12/19 01:06:51;;;;;;;;;;;;;;;;;;5047537;28;19928;-61
2020/12/19 01:09:18;;;;;;;;;;;;;;;;;;5061355;28;20560;-62
2020/12/19 01:11:45;;;;;;;;;;;;;;;;;;5066431;28;20291;-61
2020/12/19 01:14:12;;;;;;;;;;;;;;;;;;5066814;28;19966;-61
2020/12/19 01:16:39;;;;;;;;;;;;;;;;;;5064883;28;19955;-61
2020/12/19 01:19:07;;;;;;;;;;;;;;;;;;5066850;28;19928;-61
2020/12/19 01:21:34;;;;;;;;;;;;;;;;;;5067024;28;19928;-61
2020/12/19 01:24:01;;;;;;;;;;;;;;;;;;5067469;28;19995;-62
2020/12/19 01:26:28;;;;;;;;;;;;;;;;;;5065512;28;19935;-61
2020/12/19 01:28:55;;;;;;;;;;;;;;;;;;5066408;28;19935;-61
2020/12/19 01:31:22;;;;;;;;;;;;;;;;;;5065435;28;19932;-61
2020/12/19 01:33:49;;;;;;;;;;;;;;;;;;5052177;28;20022;-61
2020/12/19 01:36:17;;;;;;;;;;;;;;;;;;5064397;28;20392;-61
2020/12/19 01:38:44;;;;;;;;;;;;;;;;;;5066969;28;19928;-62
2020/12/19 01:41:11;;;;;;;;;;;;;;;;;;5065635;28;19963;-61
2020/12/19 01:43:38;;;;;;;;;;;;;;;;;;5066599;28;19932;-62
2020/12/19 01:46:05;;;;;;;;;;;;;;;;;;5067498;28;19962;-62
2020/12/19 01:48:32;;;;;;;;;;;;;;;;;;5067856;28;19935;-62
2020/12/19 01:50:59;;;;;;;;;;;;;;;;;;5068982;28;20073;-61
2020/12/19 01:53:26;;;;;;;;;;;;;;;;;;5068969;28;19939;-62
2020/12/19 01:55:53;;;;;;;;;;;;;;;;;;5066534;28;19928;-62
2020/12/19 01:58:21;;;;;;;;;;;;;;;;;;5069361;28;19986;-62
2020/12/19 02:00:48;;;;;;;;;;;;;;;;;;5068675;28;19935;-62
2020/12/19 02:03:17;;;;;;;;;;;;;;;;;;5068755;28;20168;-61
2020/12/19 02:05:47;;;;;;;;;;;;;;;;;;5069803;28;19940;-61
2020/12/19 02:08:14;;;;;;;;;;;;;;;;;;5069602;28;19925;-61
2020/12/19 02:10:41;;;;;;;;;;;;;;;;;;5068330;28;19924;-62
2020/12/19 02:13:09;;;;;;;;;;;;;;;;;;5065876;28;19936;-61
2020/12/19 02:15:36;;;;;;;;;;;;;;;;;;5064053;28;19932;-62
2020/12/19 02:18:03;;;;;;;;;;;;;;;;;;5065660;28;20008;-61
2020/12/19 02:20:30;;;;;;;;;;;;;;;;;;5067673;28;20396;-61
2020/12/19 02:22:57;;;;;;;;;;;;;;;;;;5068392;28;19924;-61
2020/12/19 02:25:24;;;;;;;;;;;;;;;;;;5068564;28;20368;-61
2020/12/19 02:27:51;;;;;;;;;;;;;;;;;;5067338;28;19932;-62
2020/12/19 02:30:18;;;;;;;;;;;;;;;;;;5068031;28;19929;-61
2020/12/19 02:32:46;;;;;;;;;;;;;;;;;;5051189;28;19924;-61
2020/12/19 02:35:13;;;;;;;;;;;;;;;;;;5068253;28;19928;-61
2020/12/19 02:37:40;;;;;;;;;;;;;;;;;;5069123;28;19939;-61
2020/12/19 02:40:07;;;;;;;;;;;;;;;;;;5067900;28;19928;-61
2020/12/19 02:42:34;;;;;;;;;;;;;;;;;;5069320;28;20027;-61
2020/12/19 02:45:01;;;;;;;;;;;;;;;;;;5068061;28;19936;-62
2020/12/19 02:47:28;;;;;;;;;;;;;;;;;;5068369;28;19928;-61
2020/12/19 02:49:55;;;;;;;;;;;;;;;;;;5068297;28;20349;-61
2020/12/19 02:52:22;;;;;;;;;;;;;;;;;;5068017;28;19924;-61
2020/12/19 02:54:49;;;;;;;;;;;;;;;;;;5067110;28;19931;-61
2020/12/19 02:57:17;;;;;;;;;;;;;;;;;;5067836;28;19924;-61
2020/12/19 02:59:44;;;;;;;;;;;;;;;;;;5068371;28;19928;-62
2020/12/19 03:02:11;;;;;;;;;;;;;;;;;;5068269;28;19925;-62
2020/12/19 03:04:38;;;;;;;;;;;;;;;;;;5071067;28;19931;-62
2020/12/19 03:07:05;;;;;;;;;;;;;;;;;;5072169;28;20027;-62
2020/12/19 03:09:32;;;;;;;;;;;;;;;;;;5072835;28;19924;-61
2020/12/19 03:11:59;;;;;;;;;;;;;;;;;;5073304;28;19938;-62
2020/12/19 03:14:26;;;;;;;;;;;;;;;;;;5071353;28;20410;-61
2020/12/19 03:16:53;;;;;;;;;;;;;;;;;;5071145;28;19928;-62
2020/12/19 03:19:21;;;;;;;;;;;;;;;;;;5068302;28;20268;-61
2020/12/19 03:21:48;;;;;;;;;;;;;;;;;;5072146;28;19931;-61
2020/12/19 03:24:15;;;;;;;;;;;;;;;;;;5072063;28;19936;-61
2020/12/19 03:26:42;;;;;;;;;;;;;;;;;;5071891;28;19931;-61
2020/12/19 03:29:09;;;;;;;;;;;;;;;;;;5071947;28;19931;-62
2020/12/19 03:31:37;;;;;;;;;;;;;;;;;;5070086;28;19925;-62
2020/12/19 03:34:04;;;;;;;;;;;;;;;;;;5056345;28;19929;-61
2020/12/19 03:36:41;;;;;;;;;;;;;;;;;;5071247;28;19925;-62
2020/12/19 03:39:08;;;;;;;;;;;;;;;;;;5071451;28;19935;-61
2020/12/19 03:41:35;;;;;;;;;;;;;;;;;;5071286;28;19929;-61
2020/12/19 03:44:02;;;;;;;;;;;;;;;;;;5072548;28;19928;-61
2020/12/19 03:46:29;;;;;;;;;;;;;;;;;;5070994;28;20035;-61
2020/12/19 03:48:56;;;;;;;;;;;;;;;;;;5071863;28;19932;-62
2020/12/19 03:51:24;;;;;;;;;;;;;;;;;;5070530;28;20018;-61
2020/12/19 03:53:51;;;;;;;;;;;;;;;;;;5060207;28;20011;-61
2020/12/19 03:56:18;;;;;;;;;;;;;;;;;;5070724;28;19930;-62
2020/12/19 03:58:45;;;;;;;;;;;;;;;;;;5071495;28;19928;-61
2020/12/19 04:01:12;;;;;;;;;;;;;;;;;;5071345;28;20303;-61
2020/12/19 04:03:39;;;;;;;;;;;;;;;;;;5061591;28;20046;-61
2020/12/19 04:06:06;;;;;;;;;;;;;;;;;;5070732;28;19928;-62
2020/12/19 04:08:33;;;;;;;;;;;;;;;;;;5070256;28;20023;-61
2020/12/19 04:11:01;;;;;;;;;;;;;;;;;;5071223;28;20234;-61
2020/12/19 04:13:28;;;;;;;;;;;;;;;;;;5071215;28;19929;-61
2020/12/19 04:16:01;;;;;;;;;;;;;;;;;;489100;28;10022090;-61
2020/12/19 04:18:28;;;;;;;;;;;;;;;;;;5037637;28;19929;-61
2020/12/19 04:20:55;;;;;;;;;;;;;;;;;;5050843;28;19925;-61
2020/12/19 04:23:22;;;;;;;;;;;;;;;;;;5050929;28;19925;-61
2020/12/19 04:25:49;;;;;;;;;;;;;;;;;;5044374;28;19935;-61
2020/12/19 04:28:16;;;;;;;;;;;;;;;;;;5042267;28;20019;-61
2020/12/19 04:30:44;;;;;;;;;;;;;;;;;;5050129;28;19936;-61
2020/12/19 04:33:11;;;;;;;;;;;;;;;;;;5042570;28;19929;-61
2020/12/19 04:35:38;;;;;;;;;;;;;;;;;;5037019;28;20372;-61
2020/12/19 04:38:05;;;;;;;;;;;;;;;;;;5050535;28;20389;-61
2020/12/19 04:40:32;;;;;;;;;;;;;;;;;;5049606;28;19931;-61
2020/12/19 04:42:59;;;;;;;;;;;;;;;;;;5051651;28;19925;-62
2020/12/19 04:45:26;;;;;;;;;;;;;;;;;;5049703;28;20388;-61
2020/12/19 04:47:53;;;;;;;;;;;;;;;;;;5050994;28;19932;-61
2020/12/19 04:50:21;;;;;;;;;;;;;;;;;;5050352;28;20184;-61
2020/12/19 04:52:48;;;;;;;;;;;;;;;;;;5050305;28;20368;-61
2020/12/19 04:55:15;;;;;;;;;;;;;;;;;;5047887;28;20292;-61
2020/12/19 04:57:42;;;;;;;;;;;;;;;;;;5050691;28;19924;-61
2020/12/19 05:00:10;;;;;;;;;;;;;;;;;;5036897;28;20017;-61
2020/12/19 05:02:37;;;;;;;;;;;;;;;;;;5050292;28;20276;-61
2020/12/19 05:05:04;;;;;;;;;;;;;;;;;;5050043;28;19937;-61
2020/12/19 05:07:38;;;;;;;;;;;;;;;;;;5049435;28;19931;-61
2020/12/19 05:10:05;;;;;;;;;;;;;;;;;;5049756;28;19925;-61
2020/12/19 05:12:32;;;;;;;;;;;;;;;;;;5050023;28;19924;-61
2020/12/19 05:14:59;;;;;;;;;;;;;;;;;;5050381;28;19925;-61
2020/12/19 05:17:26;;;;;;;;;;;;;;;;;;5049657;28;20321;-61
2020/12/19 05:19:53;;;;;;;;;;;;;;;;;;5049589;28;20322;-62
2020/12/19 05:22:21;;;;;;;;;;;;;;;;;;5049278;28;20633;-62
2020/12/19 05:24:48;;;;;;;;;;;;;;;;;;5049996;28;19935;-61
2020/12/19 05:27:15;;;;;;;;;;;;;;;;;;5047820;28;19924;-61
2020/12/19 05:29:42;;;;;;;;;;;;;;;;;;5048633;28;19946;-61
2020/12/19 05:32:09;;;;;;;;;;;;;;;;;;5049612;28;19931;-61
2020/12/19 05:34:36;;;;;;;;;;;;;;;;;;5047590;28;19931;-61
2020/12/19 05:37:04;;;;;;;;;;;;;;;;;;5049706;28;19929;-61
2020/12/19 05:39:31;;;;;;;;;;;;;;;;;;5048938;28;19929;-61
2020/12/19 05:41:58;;;;;;;;;;;;;;;;;;5048203;28;19929;-62
2020/12/19 05:44:25;;;;;;;;;;;;;;;;;;5048769;28;20307;-61
2020/12/19 05:46:52;;;;;;;;;;;;;;;;;;5045475;28;19924;-62
2020/12/19 05:49:21;;;;;;;;;;;;;;;;;;5049079;28;19924;-62
2020/12/19 05:51:48;;;;;;;;;;;;;;;;;;5049337;28;19924;-62
2020/12/19 05:54:15;;;;;;;;;;;;;;;;;;5049628;28;19925;-62
2020/12/19 05:56:42;;;;;;;;;;;;;;;;;;5045389;28;20349;-62
2020/12/19 05:59:09;;;;;;;;;;;;;;;;;;5048314;28;20011;-62
2020/12/19 06:01:37;;;;;;;;;;;;;;;;;;5042754;28;20405;-62
2020/12/19 06:04:04;;;;;;;;;;;;;;;;;;5049580;28;20431;-61
2020/12/19 06:06:31;;;;;;;;;;;;;;;;;;5048721;28;20413;-62
2020/12/19 06:08:58;;;;;;;;;;;;;;;;;;5049223;28;19928;-61
2020/12/19 06:11:25;;;;;;;;;;;;;;;;;;5049068;28;19925;-62
2020/12/19 06:13:52;;;;;;;;;;;;;;;;;;5049071;28;20394;-61
2020/12/19 06:16:20;;;;;;;;;;;;;;;;;;5048408;28;20012;-62
2020/12/19 06:18:47;;;;;;;;;;;;;;;;;;5046732;28;19928;-61
2020/12/19 06:21:14;;;;;;;;;;;;;;;;;;5048768;28;19935;-62
2020/12/19 06:23:41;;;;;;;;;;;;;;;;;;5047825;28;19929;-61
2020/12/19 06:26:08;;;;;;;;;;;;;;;;;;5049505;28;19929;-62
2020/12/19 06:28:35;;;;;;;;;;;;;;;;;;5048179;28;19929;-62
2020/12/19 06:31:02;;;;;;;;;;;;;;;;;;5049554;28;20265;-62
2020/12/19 06:33:29;;;;;;;;;;;;;;;;;;5046099;28;19929;-61
2020/12/19 06:35:57;;;;;;;;;;;;;;;;;;5049224;28;19975;-62
2020/12/19 06:38:35;;;;;;;;;;;;;;;;;;5048369;28;20446;-61
2020/12/19 06:41:02;;;;;;;;;;;;;;;;;;5049398;28;19991;-61
2020/12/19 06:43:29;;;;;;;;;;;;;;;;;;5048500;28;19929;-61
2020/12/19 06:45:56;;;;;;;;;;;;;;;;;;5048291;28;19928;-61
2020/12/19 06:48:23;;;;;;;;;;;;;;;;;;5046091;28;19931;-61
2020/12/19 06:50:50;;;;;;;;;;;;;;;;;;5047954;28;19935;-61
2020/12/19 06:53:17;;;;;;;;;;;;;;;;;;5044497;28;19929;-61
2020/12/19 06:55:44;;;;;;;;;;;;;;;;;;5044673;28;19959;-61
2020/12/19 06:58:11;;;;;;;;;;;;;;;;;;5037936;28;20345;-61
2020/12/19 07:00:38;;;;;;;;;;;;;;;;;;5038041;28;20300;-62
2020/12/19 07:03:06;;;;;;;;;;;;;;;;;;5044852;28;19929;-62
2020/12/19 07:05:33;;;;;;;;;;;;;;;;;;5045842;28;19935;-61
2020/12/19 07:08:00;;;;;;;;;;;;;;;;;;5044683;28;20480;-62
2020/12/19 07:10:27;;;;;;;;;;;;;;;;;;5047085;28;19925;-62
2020/12/19 07:12:54;;;;;;;;;;;;;;;;;;5043901;28;19929;-62
2020/12/19 07:15:22;;;;;;;;;;;;;;;;;;5047562;28;19925;-62
2020/12/19 07:17:49;;;;;;;;;;;;;;;;;;5043831;28;19947;-62
2020/12/19 07:20:16;;;;;;;;;;;;;;;;;;5039102;28;20380;-62
2020/12/19 07:22:43;;;;;;;;;;;;;;;;;;5042081;28;20261;-62
2020/12/19 07:25:10;;;;;;;;;;;;;;;;;;5046905;28;19935;-62
2020/12/19 07:27:37;;;;;;;;;;;;;;;;;;5048909;28;19924;-62
2020/12/19 07:30:04;;;;;;;;;;;;;;;;;;5048646;28;20291;-62
2020/12/19 07:32:31;;;;;;;;;;;;;;;;;;5048800;28;19925;-61
2020/12/19 07:34:58;;;;;;;;;;;;;;;;;;5048407;28;19933;-61
2020/12/19 07:37:26;;;;;;;;;;;;;;;;;;5046308;28;20015;-61
2020/12/19 07:39:53;;;;;;;;;;;;;;;;;;5045351;28;20392;-62
2020/12/19 07:42:20;;;;;;;;;;;;;;;;;;5046124;28;20346;-61
2020/12/19 07:44:47;;;;;;;;;;;;;;;;;;5047145;28;19935;-61
2020/12/19 07:47:14;;;;;;;;;;;;;;;;;;5045505;28;19933;-62
2020/12/19 07:49:41;;;;;;;;;;;;;;;;;;5043629;28;19970;-61
2020/12/19 07:52:08;;;;;;;;;;;;;;;;;;5045584;28;20424;-61
2020/12/19 07:54:35;;;;;;;;;;;;;;;;;;5050142;28;19931;-62
2020/12/19 07:57:02;;;;;;;;;;;;;;;;;;5048454;28;19951;-61
2020/12/19 07:59:29;;;;;;;;;;;;;;;;;;5049359;28;19925;-61
2020/12/19 08:01:57;;;;;;;;;;;;;;;;;;5048691;28;19944;-62
2020/12/19 08:04:24;;;;;;;;;;;;;;;;;;5048374;28;19928;-62
2020/12/19 08:06:51;;;;;;;;;;;;;;;;;;5046867;28;19935;-62
2020/12/19 08:09:30;;;;;;;;;;;;;;;;;;5042383;28;20094;-62
2020/12/19 08:11:57;;;;;;;;;;;;;;;;;;5048827;28;20466;-62
2020/12/19 08:14:24;;;;;;;;;;;;;;;;;;5047992;28;19928;-61
2020/12/19 08:16:51;;;;;;;;;;;;;;;;;;5049165;28;19939;-62
2020/12/19 08:19:18;;;;;;;;;;;;;;;;;;5035573;28;19924;-61
2020/12/19 08:21:48;;;;;;;;;;;;;;;;;;5048142;28;19925;-62
2020/12/19 08:24:15;;;;;;;;;;;;;;;;;;5048530;28;19935;-62
2020/12/19 08:26:42;;;;;;;;;;;;;;;;;;5050869;28;19928;-61
2020/12/19 08:29:09;;;;;;;;;;;;;;;;;;5048335;28;19935;-62
2020/12/19 08:31:36;;;;;;;;;;;;;;;;;;5069353;28;19937;-61
2020/12/19 08:34:04;;;;;;;;;;;;;;;;;;5068828;28;19929;-62
2020/12/19 08:36:31;;;;;;;;;;;;;;;;;;5068602;28;19932;-62
2020/12/19 08:38:58;;;;;;;;;;;;;;;;;;5073441;28;19928;-61
2020/12/19 08:41:25;;;;;;;;;;;;;;;;;;5068051;28;19991;-62
2020/12/19 08:43:52;;;;;;;;;;;;;;;;;;5069433;28;19947;-61
2020/12/19 08:46:19;;;;;;;;;;;;;;;;;;5069209;28;19939;-61
2020/12/19 08:48:47;;;;;;;;;;;;;;;;;;5068299;28;19935;-61
2020/12/19 08:51:14;;;;;;;;;;;;;;;;;;5067660;28;19964;-62
2020/12/19 08:53:41;;;;;;;;;;;;;;;;;;5068369;28;19939;-62
2020/12/19 08:56:09;;;;;;;;;;;;;;;;;;5067217;28;19958;-61
2020/12/19 08:58:36;;;;;;;;;;;;;;;;;;5066927;28;19942;-61
2020/12/19 09:01:03;;;;;;;;;;;;;;;;;;5064470;28;19928;-61
2020/12/19 09:03:30;;;;;;;;;;;;;;;;;;5067019;28;20015;-62
2020/12/19 09:05:57;;;;;;;;;;;;;;;;;;5066318;28;20444;-62
2020/12/19 09:08:24;;;;;;;;;;;;;;;;;;5068417;28;19932;-61
2020/12/19 09:10:51;;;;;;;;;;;;;;;;;;5053798;28;20409;-62
2020/12/19 09:13:19;;;;;;;;;;;;;;;;;;5058137;28;19935;-62
2020/12/19 09:15:46;;;;;;;;;;;;;;;;;;5047070;28;19932;-62
2020/12/19 09:18:13;;;;;;;;;;;;;;;;;;5047009;28;19933;-62
2020/12/19 09:20:40;;;;;;;;;;;;;;;;;;5047079;28;19924;-61
2020/12/19 09:23:07;;;;;;;;;;;;;;;;;;5047600;28;19929;-61
2020/12/19 09:25:34;;;;;;;;;;;;;;;;;;5045176;28;19932;-61
2020/12/19 09:28:02;;;;;;;;;;;;;;;;;;5041932;28;19933;-61
2020/12/19 09:30:29;;;;;;;;;;;;;;;;;;5046601;28;20037;-61
2020/12/19 09:32:57;;;;;;;;;;;;;;;;;;5046587;28;19925;-62
2020/12/19 09:35:24;;;;;;;;;;;;;;;;;;5047778;28;20052;-62
2020/12/19 09:37:51;;;;;;;;;;;;;;;;;;5047507;28;19932;-61
2020/12/19 09:40:27;;;;;;;;;;;;;;;;;;5047261;28;19935;-61
2020/12/19 09:42:54;;;;;;;;;;;;;;;;;;5039307;28;19929;-62
2020/12/19 09:45:21;;;;;;;;;;;;;;;;;;5047536;28;20020;-62
2020/12/19 09:47:48;;;;;;;;;;;;;;;;;;5047698;28;19979;-62
2020/12/19 09:50:15;;;;;;;;;;;;;;;;;;5045649;28;20609;-62
2020/12/19 09:52:43;;;;;;;;;;;;;;;;;;5046719;28;20012;-62
2020/12/19 09:55:10;;;;;;;;;;;;;;;;;;5046865;28;20003;-62
2020/12/19 09:57:37;;;;;;;;;;;;;;;;;;5047498;28;19929;-62
2020/12/19 10:00:04;;;;;;;;;;;;;;;;;;5046860;28;19929;-61
2020/12/19 10:02:31;;;;;;;;;;;;;;;;;;5044967;28;19929;-61
2020/12/19 10:04:58;;;;;;;;;;;;;;;;;;5046255;28;19928;-62
2020/12/19 10:07:25;;;;;;;;;;;;;;;;;;5045945;28;20394;-61
2020/12/19 10:09:52;;;;;;;;;;;;;;;;;;5045855;28;19929;-61
2020/12/19 10:12:19;;;;;;;;;;;;;;;;;;5045676;28;19925;-62
2020/12/19 10:14:46;;;;;;;;;;;;;;;;;;5044136;28;20392;-62
2020/12/19 10:17:14;;;;;;;;;;;;;;;;;;5046929;28;19935;-61
2020/12/19 10:19:41;;;;;;;;;;;;;;;;;;5045575;28;20408;-61
2020/12/19 10:22:08;;;;;;;;;;;;;;;;;;5046679;28;19933;-62
2020/12/19 10:24:35;;;;;;;;;;;;;;;;;;5046116;28;19924;-61
2020/12/19 10:27:02;;;;;;;;;;;;;;;;;;5048414;28;20455;-62
2020/12/19 10:29:29;;;;;;;;;;;;;;;;;;5049102;28;19953;-62
2020/12/19 10:31:56;;;;;;;;;;;;;;;;;;5049739;28;20089;-62
2020/12/19 10:34:24;;;;;;;;;;;;;;;;;;5050443;28;19935;-62
2020/12/19 10:36:51;;;;;;;;;;;;;;;;;;5049816;28;20402;-62
2020/12/19 10:39:18;;;;;;;;;;;;;;;;;;5049389;28;19932;-61
2020/12/19 10:41:45;;;;;;;;;;;;;;;;;;5048009;28;19935;-61
2020/12/19 10:44:13;;;;;;;;;;;;;;;;;;5044806;28;19925;-61
2020/12/19 10:46:40;;;;;;;;;;;;;;;;;;5048080;28;19925;-62
2020/12/19 10:49:07;;;;;;;;;;;;;;;;;;5049722;28;20404;-62
2020/12/19 10:51:34;;;;;;;;;;;;;;;;;;5046489;28;19929;-62
2020/12/19 10:54:01;;;;;;;;;;;;;;;;;;5041421;28;20422;-61
2020/12/19 10:56:28;;;;;;;;;;;;;;;;;;5044959;28;20387;-61
2020/12/19 10:58:55;;;;;;;;;;;;;;;;;;5048022;28;20009;-61
2020/12/19 11:01:22;;;;;;;;;;;;;;;;;;5046598;28;19935;-61
2020/12/19 11:03:49;;;;;;;;;;;;;;;;;;5046671;28;19960;-62
2020/12/19 11:06:17;;;;;;;;;;;;;;;;;;5048796;28;19968;-61
2020/12/19 11:08:44;;;;;;;;;;;;;;;;;;5047565;28;19932;-62
2020/12/19 11:11:19;;;;;;;;;;;;;;;;;;5048668;28;19925;-61
2020/12/19 11:13:46;;;;;;;;;;;;;;;;;;5045507;28;19925;-61
2020/12/19 11:16:13;;;;;;;;;;;;;;;;;;5047634;28;19935;-61
2020/12/19 11:18:40;;;;;;;;;;;;;;;;;;5048706;28;19925;-61
2020/12/19 11:21:08;;;;;;;;;;;;;;;;;;5044231;28;19925;-61
2020/12/19 11:23:35;;;;;;;;;;;;;;;;;;5046507;28;19929;-61
2020/12/19 11:26:02;;;;;;;;;;;;;;;;;;5051993;28;20036;-61
2020/12/19 11:28:29;;;;;;;;;;;;;;;;;;5052692;28;19931;-61
2020/12/19 11:30:56;;;;;;;;;;;;;;;;;;5052428;28;20330;-61
2020/12/19 11:33:23;;;;;;;;;;;;;;;;;;5053468;28;20019;-61
2020/12/19 11:35:50;;;;;;;;;;;;;;;;;;5052428;28;20023;-61
2020/12/19 11:38:17;;;;;;;;;;;;;;;;;;5050342;28;20004;-62
2020/12/19 11:40:44;;;;;;;;;;;;;;;;;;5049794;28;19924;-61
2020/12/19 11:43:12;;;;;;;;;;;;;;;;;;5052351;28;19986;-61
2020/12/19 11:45:39;;;;;;;;;;;;;;;;;;5050975;28;19931;-62
2020/12/19 11:48:06;;;;;;;;;;;;;;;;;;5051225;28;19928;-62
2020/12/19 11:50:34;;;;;;;;;;;;;;;;;;5052547;28;19929;-61
2020/12/19 11:53:01;;;;;;;;;;;;;;;;;;5053588;28;19925;-61
2020/12/19 11:55:28;;;;;;;;;;;;;;;;;;5046347;28;19980;-61
2020/12/19 11:57:55;;;;;;;;;;;;;;;;;;5049641;28;19929;-61
2020/12/19 12:00:22;;;;;;;;;;;;;;;;;;5051808;28;20379;-61
2020/12/19 12:02:49;;;;;;;;;;;;;;;;;;5051264;28;19932;-61
2020/12/19 12:05:16;;;;;;;;;;;;;;;;;;5061537;28;20350;-61
2020/12/19 12:07:43;;;;;;;;;;;;;;;;;;5057474;28;19928;-61
2020/12/19 12:10:11;;;;;;;;;;;;;;;;;;5052491;28;19932;-61
2020/12/19 12:12:38;;;;;;;;;;;;;;;;;;5048653;28;19935;-61
2020/12/19 12:15:06;;;;;;;;;;;;;;;;;;5048169;28;19928;-61
2020/12/19 12:17:33;;;;;;;;;;;;;;;;;;5052468;28;20020;-61
2020/12/19 12:20:00;;;;;;;;;;;;;;;;;;5047832;28;19937;-61
2020/12/19 12:22:27;;;;;;;;;;;;;;;;;;5050106;28;19925;-61
2020/12/19 12:24:54;;;;;;;;;;;;;;;;;;5052088;28;19935;-61
2020/12/19 12:27:23;;;;;;;;;;;;;;;;;;5049821;28;20031;-61
2020/12/19 12:29:50;;;;;;;;;;;;;;;;;;5051496;28;19935;-61
2020/12/19 12:32:17;;;;;;;;;;;;;;;;;;5050905;28;19924;-61
2020/12/19 12:34:44;;;;;;;;;;;;;;;;;;5050377;28;19928;-61
2020/12/19 12:37:11;;;;;;;;;;;;;;;;;;5050643;28;19929;-61
2020/12/19 12:39:38;;;;;;;;;;;;;;;;;;5053385;28;19931;-61
2020/12/19 12:42:10;;;;;;;;;;;;;;;;;;5069336;28;20369;-61
2020/12/19 12:44:37;;;;;;;;;;;;;;;;;;5069488;28;19970;-61
2020/12/19 12:47:05;;;;;;;;;;;;;;;;;;5071195;28;19925;-61
2020/12/19 12:49:33;;;;;;;;;;;;;;;;;;5062299;28;19979;-61
2020/12/19 12:52:00;;;;;;;;;;;;;;;;;;5048938;28;19925;-61
2020/12/19 12:54:27;;;;;;;;;;;;;;;;;;5037787;28;20008;-61
2020/12/19 12:56:54;;;;;;;;;;;;;;;;;;5045444;28;19976;-61
2020/12/19 12:59:21;;;;;;;;;;;;;;;;;;5038047;28;20347;-61
2020/12/19 13:01:48;;;;;;;;;;;;;;;;;;5042116;28;19925;-61
2020/12/19 13:04:15;;;;;;;;;;;;;;;;;;5040486;28;20345;-61
2020/12/19 13:06:43;;;;;;;;;;;;;;;;;;5044121;28;19975;-61
2020/12/19 13:09:10;;;;;;;;;;;;;;;;;;5043906;28;19925;-61
2020/12/19 13:11:37;;;;;;;;;;;;;;;;;;5040240;28;20023;-61
2020/12/19 13:14:04;;;;;;;;;;;;;;;;;;5045525;28;20051;-61
2020/12/19 13:16:31;;;;;;;;;;;;;;;;;;5051582;28;20009;-61
2020/12/19 13:18:58;;;;;;;;;;;;;;;;;;5050829;28;19931;-61
2020/12/19 13:21:25;;;;;;;;;;;;;;;;;;5070721;28;20008;-61
2020/12/19 13:23:53;;;;;;;;;;;;;;;;;;5070641;28;20440;-62
2020/12/19 13:26:20;;;;;;;;;;;;;;;;;;5067958;28;19925;-61
2020/12/19 13:28:47;;;;;;;;;;;;;;;;;;5070752;28;20014;-62
2020/12/19 13:31:14;;;;;;;;;;;;;;;;;;5047799;28;19932;-62
2020/12/19 13:33:41;;;;;;;;;;;;;;;;;;5037297;28;19929;-61
2020/12/19 13:36:09;;;;;;;;;;;;;;;;;;5035823;28;20007;-61
2020/12/19 13:38:36;;;;;;;;;;;;;;;;;;5036213;28;19951;-61
2020/12/19 13:41:03;;;;;;;;;;;;;;;;;;5036694;28;20392;-61
2020/12/19 13:43:30;;;;;;;;;;;;;;;;;;5037084;28;19929;-61
2020/12/19 13:45:57;;;;;;;;;;;;;;;;;;5042894;28;19932;-61
2020/12/19 13:48:24;;;;;;;;;;;;;;;;;;5048977;28;19972;-61
2020/12/19 13:50:52;;;;;;;;;;;;;;;;;;5038652;28;19925;-61
2020/12/19 13:53:19;;;;;;;;;;;;;;;;;;5034407;28;19931;-61
2020/12/19 13:55:46;;;;;;;;;;;;;;;;;;5037904;28;19929;-61
2020/12/19 13:58:13;;;;;;;;;;;;;;;;;;5045198;28;20475;-61
2020/12/19 14:00:40;;;;;;;;;;;;;;;;;;5040856;28;20044;-61
2020/12/19 14:03:07;;;;;;;;;;;;;;;;;;5042612;28;19928;-61
2020/12/19 14:05:34;;;;;;;;;;;;;;;;;;5033069;28;20011;-61
2020/12/19 14:08:01;;;;;;;;;;;;;;;;;;5032102;28;19931;-61
2020/12/19 14:10:28;;;;;;;;;;;;;;;;;;5054788;28;20007;-61
2020/12/19 14:13:02;;;;;;;;;;;;;;;;;;5066191;28;19946;-61
2020/12/19 14:15:29;;;;;;;;;;;;;;;;;;5064755;28;20442;-63
2020/12/19 14:17:57;;;;;;;;;;;;;;;;;;5069363;28;20196;-63
2020/12/19 14:20:33;;;;;;;;;;;;;;;;;;5057559;28;19940;-63
2020/12/19 14:23:00;;;;;;;;;;;;;;;;;;5049747;28;19958;-67
2020/12/19 14:25:27;;;;;;;;;;;;;;;;;;5050780;28;19924;-63
2020/12/19 14:27:54;;;;;;;;;;;;;;;;;;5050944;28;19925;-63
2020/12/19 14:30:21;;;;;;;;;;;;;;;;;;5049705;28;19931;-63
2020/12/19 14:32:49;;;;;;;;;;;;;;;;;;5045190;28;20011;-64
2020/12/19 14:35:16;;;;;;;;;;;;;;;;;;5048157;28;20483;-63
2020/12/19 14:37:43;;;;;;;;;;;;;;;;;;5050721;28;20019;-63
2020/12/19 14:40:10;;;;;;;;;;;;;;;;;;5049368;28;19969;-67
2020/12/19 14:42:38;;;;;;;;;;;;;;;;;;5050610;28;19929;-62
2020/12/19 14:45:05;;;;;;;;;;;;;;;;;;5050182;28;19925;-63
2020/12/19 14:47:43;;;;;;;;;;;;;;;;;;5050268;28;19987;-67
2020/12/19 14:50:11;;;;;;;;;;;;;;;;;;5043851;28;20338;-68
2020/12/19 14:52:38;;;;;;;;;;;;;;;;;;5050870;28;19925;-62
2020/12/19 14:55:06;;;;;;;;;;;;;;;;;;5050783;28;19932;-63
2020/12/19 14:57:33;;;;;;;;;;;;;;;;;;5049426;28;20315;-66
2020/12/19 15:00:00;;;;;;;;;;;;;;;;;;5059508;28;19936;-63
2020/12/19 15:02:27;;;;;;;;;;;;;;;;;;5074227;28;20486;-63
2020/12/19 15:04:54;;;;;;;;;;;;;;;;;;5073450;28;19935;-63
2020/12/19 15:07:21;;;;;;;;;;;;;;;;;;5073963;28;19931;-64
2020/12/19 15:09:48;;;;;;;;;;;;;;;;;;5067802;28;20000;-63
2020/12/19 15:12:15;;;;;;;;;;;;;;;;;;5053822;28;19925;-63
2020/12/19 15:14:43;;;;;;;;;;;;;;;;;;5054029;28;19928;-62
2020/12/19 15:17:10;;;;;;;;;;;;;;;;;;5054279;28;19959;-68
2020/12/19 15:19:40;;;;;;;;;;;;;;;;;;5053355;28;19929;-68
2020/12/19 15:22:07;;;;;;;;;;;;;;;;;;5054388;28;19971;-63
2020/12/19 15:24:34;;;;;;;;;;;;;;;;;;5053636;28;20063;-69
2020/12/19 15:27:01;;;;;;;;;;;;;;;;;;5053476;28;19935;-69
2020/12/19 15:29:29;;;;;;;;;;;;;;;;;;5051746;28;20016;-72
2020/12/19 15:31:56;;;;;;;;;;;;;;;;;;5052158;28;19925;-71
2020/12/19 15:34:23;;;;;;;;;;;;;;;;;;5053193;28;20406;-65
2020/12/19 15:36:50;;;;;;;;;;;;;;;;;;5051062;28;19959;-63
2020/12/19 15:39:17;;;;;;;;;;;;;;;;;;5050228;28;20382;-64
2020/12/19 15:41:44;;;;;;;;;;;;;;;;;;5050375;28;19925;-63
2020/12/19 15:44:12;;;;;;;;;;;;;;;;;;5052668;28;19931;-64
2020/12/19 15:46:39;;;;;;;;;;;;;;;;;;5050631;28;20027;-61
2020/12/19 15:49:06;;;;;;;;;;;;;;;;;;5051458;28;19929;-63
2020/12/19 15:51:34;;;;;;;;;;;;;;;;;;5052259;28;19929;-67
2020/12/19 15:54:01;;;;;;;;;;;;;;;;;;5051447;28;20016;-61
2020/12/19 15:56:30;;;;;;;;;;;;;;;;;;5051711;28;19972;-62
2020/12/19 15:58:57;;;;;;;;;;;;;;;;;;5050774;28;19929;-61
2020/12/19 16:01:24;;;;;;;;;;;;;;;;;;5049708;28;19992;-61
2020/12/19 16:03:51;;;;;;;;;;;;;;;;;;5049802;28;19929;-62
2020/12/19 16:06:18;;;;;;;;;;;;;;;;;;5049162;28;19933;-61
2020/12/19 16:08:45;;;;;;;;;;;;;;;;;;5049568;28;20380;-63
2020/12/19 16:11:13;;;;;;;;;;;;;;;;;;5046285;28;20024;-63
2020/12/19 16:13:40;;;;;;;;;;;;;;;;;;5034825;28;20484;-68
2020/12/19 16:16:07;;;;;;;;;;;;;;;;;;5045308;28;20343;-61
2020/12/19 16:18:34;;;;;;;;;;;;;;;;;;5047265;28;19979;-62
2020/12/19 16:21:01;;;;;;;;;;;;;;;;;;5038198;28;19929;-61
2020/12/19 16:23:29;;;;;;;;;;;;;;;;;;5043251;28;20015;-66
2020/12/19 16:25:56;;;;;;;;;;;;;;;;;;5046497;28;19971;-64
2020/12/19 16:28:23;;;;;;;;;;;;;;;;;;5047889;28;20032;-65
2020/12/19 16:30:50;;;;;;;;;;;;;;;;;;5048378;28;19935;-67
2020/12/19 16:33:17;;;;;;;;;;;;;;;;;;5048797;28;20063;-65
2020/12/19 16:35:44;;;;;;;;;;;;;;;;;;5048605;28;20363;-64
2020/12/19 16:38:12;;;;;;;;;;;;;;;;;;5048862;28;20466;-65
2020/12/19 16:40:39;;;;;;;;;;;;;;;;;;5041904;28;19935;-62
2020/12/19 16:43:06;;;;;;;;;;;;;;;;;;5050323;28;20295;-61
2020/12/19 16:45:33;;;;;;;;;;;;;;;;;;5050429;28;20031;-63